Time;durP1;ratioP1;P1;durP2;ratioP2;P2;SDS_P1;SDS_P2;PMS_P1;PMS_P2;Temp;Humidity;BMP_temperature;BMP_pressure;BME280_temperature;BME280_humidity;BME280_pressure;Samples;Min_cycle;Max_cycle;Signal;HPM_P1;HPM_P2
2023/09/19 04:32:35;;;;;;;;;2.50;0.50;;;;;24.64;44.41;101032.19;5019988;28;45184;-57
2023/09/19 04:35:03;;;;;;;;;3.00;2.00;;;;;24.48;44.32;101021.88;5021266;28;45247;-57
2023/09/19 04:37:28;;;;;;;;;0.50;0.50;;;;;24.39;44.25;101025.53;5021577;28;45345;-58
2023/09/19 04:39:54;;;;;;;;;1.75;1.00;;;;;24.23;44.88;101030.81;5020911;28;45353;-57
2023/09/19 04:42:19;;;;;;;;;3.00;1.00;;;;;24.17;45.25;101032.22;5022083;28;45651;-58
2023/09/19 04:44:44;;;;;;;;;0.00;0.00;;;;;24.19;45.36;101023.88;5003980;28;45274;-57
2023/09/19 04:47:12;;;;;;;;;1.00;1.00;;;;;24.23;44.76;101019.88;5021353;28;63083;-57
2023/09/19 04:49:37;;;;;;;;;0.50;0.00;;;;;23.87;46.09;101030.63;5020935;28;45389;-58
2023/09/19 04:52:02;;;;;;;;;1.00;1.00;;;;;24.07;45.56;101034.19;5021484;28;45450;-57
2023/09/19 04:54:28;;;;;;;;;1.00;1.00;;;;;24.13;45.09;101034.44;5021821;28;45519;-58
2023/09/19 04:56:53;;;;;;;;;1.75;1.00;;;;;24.19;44.88;101037.56;5020763;28;55250;-58
2023/09/19 04:59:18;;;;;;;;;1.00;1.00;;;;;24.26;44.96;101046.94;5020999;28;62372;-58
2023/09/19 05:01:44;;;;;;;;;2.00;1.00;;;;;24.13;45.32;101047.25;5021266;28;55034;-57
2023/09/19 05:04:09;;;;;;;;;1.50;1.00;;;;;24.04;45.70;101048.16;5021900;28;45468;-58
2023/09/19 05:06:35;;;;;;;;;5.75;1.00;;;;;24.16;45.40;101051.59;5021525;28;45500;-59
2023/09/19 05:09:00;;;;;;;;;1.25;1.25;;;;;24.23;45.05;101053.59;5021378;28;46827;-59
2023/09/19 05:11:26;;;;;;;;;0.75;0.75;;;;;24.06;45.28;101054.38;5003674;28;45390;-58
2023/09/19 05:13:52;;;;;;;;;4.25;1.75;;;;;24.16;45.27;101049.69;5021638;28;45239;-58
2023/09/19 05:16:18;;;;;;;;;3.00;2.00;;;;;24.24;45.04;101052.59;5021461;28;45968;-59
2023/09/19 05:18:43;;;;;;;;;2.00;2.00;;;;;23.92;45.47;101047.47;5020860;28;45305;-60
2023/09/19 05:21:09;;;;;;;;;3.00;1.00;;;;;24.01;45.33;101051.19;5021527;28;45345;-60
2023/09/19 05:23:34;;;;;;;;;1.00;1.00;;;;;24.06;45.20;101055.22;5020707;28;45472;-59
2023/09/19 05:26:00;;;;;;;;;1.25;1.00;;;;;24.12;45.27;101056.50;5021496;28;45559;-61
2023/09/19 05:28:26;;;;;;;;;4.00;2.00;;;;;24.17;45.03;101056.88;5021063;28;46266;-60
2023/09/19 05:30:53;;;;;;;;;1.25;1.25;;;;;24.34;44.75;101061.59;5020694;28;45367;-59
2023/09/19 05:33:18;;;;;;;;;1.00;1.00;;;;;24.39;44.23;101061.16;5021109;28;45311;-55
2023/09/19 05:35:45;;;;;;;;;0.00;0.00;;;;;24.40;44.35;101066.50;5020684;28;45225;-56
2023/09/19 05:38:12;;;;;;;;;2.25;2.25;;;;;24.19;44.89;101065.84;5020776;28;47453;-53
2023/09/19 05:40:38;;;;;;;;;1.75;1.75;;;;;24.23;44.82;101067.31;5020861;28;45436;-54
2023/09/19 05:43:05;;;;;;;;;2.50;1.50;;;;;24.22;44.63;101070.19;5021018;28;45340;-54
2023/09/19 05:45:31;;;;;;;;;3.25;1.00;;;;;24.28;44.57;101069.56;5020899;28;45554;-53
2023/09/19 05:48:04;;;;;;;;;4.50;1.00;;;;;23.84;45.38;101085.69;5020406;28;46317;-55
2023/09/19 05:50:29;;;;;;;;;4.25;1.75;;;;;24.06;45.39;101079.00;5020717;28;45342;-54
2023/09/19 05:52:56;;;;;;;;;3.00;0.75;;;;;23.77;45.23;101079.94;5020876;28;45401;-55
2023/09/19 05:55:24;;;;;;;;;6.25;3.00;;;;;24.14;45.08;101090.09;5020889;28;45938;-54
2023/09/19 05:57:53;;;;;;;;;2.00;1.00;;;;;24.00;45.13;101083.19;5020050;28;46194;-55
2023/09/19 06:00:22;;;;;;;;;1.25;1.25;;;;;24.07;45.63;101088.97;5020449;28;45491;-55
2023/09/19 06:02:53;;;;;;;;;2.75;1.00;;;;;24.22;44.84;101092.97;5020667;28;45393;-56
2023/09/19 06:05:18;;;;;;;;;1.25;1.00;;;;;24.32;44.59;101092.94;5020622;28;45413;-58
2023/09/19 06:07:44;;;;;;;;;2.00;2.00;;;;;24.25;45.04;101100.88;5020040;28;46225;-58
2023/09/19 06:10:09;;;;;;;;;12.75;8.50;;;;;24.44;44.84;101081.63;5020289;28;45487;-58
2023/09/19 06:12:45;;;;;;;;;2.00;2.00;;;;;24.57;44.27;101096.88;5020189;28;45489;-57
2023/09/19 06:15:23;;;;;;;;;3.50;1.75;;;;;24.67;44.14;101094.94;5019304;28;45449;-58
2023/09/19 06:17:49;;;;;;;;;5.00;1.00;;;;;24.65;44.31;101088.75;5020208;28;46237;-57
2023/09/19 06:20:16;;;;;;;;;1.00;1.00;;;;;24.70;44.02;101097.34;5020105;28;46470;-57
2023/09/19 06:22:42;;;;;;;;;1.75;1.00;;;;;24.40;44.55;101085.69;5020309;28;45274;-57
2023/09/19 06:25:12;;;;;;;;;1.00;1.00;;;;;24.69;44.13;101096.50;5020129;28;45426;-57
2023/09/19 06:27:42;;;;;;;;;1.75;1.00;;;;;24.71;43.91;101094.47;5020209;28;46354;-57
2023/09/19 06:30:09;;;;;;;;;1.00;1.00;;;;;24.80;43.63;101087.19;5020022;28;45487;-58
2023/09/19 06:32:35;;;;;;;;;1.00;1.00;;;;;24.72;43.95;101098.06;5020197;28;45322;-58
2023/09/19 06:35:02;;;;;;;;;1.50;1.00;;;;;24.41;44.16;101103.00;5019006;28;45408;-56
2023/09/19 06:37:30;;;;;;;;;3.00;1.75;;;;;24.38;44.18;101103.28;5019844;28;45552;-59
2023/09/19 06:39:56;;;;;;;;;2.00;2.00;;;;;24.69;44.05;101101.97;5002174;28;45271;-58
2023/09/19 06:42:22;;;;;;;;;1.50;1.25;;;;;24.35;43.97;101106.31;5020442;28;45279;-57
2023/09/19 06:44:48;;;;;;;;;1.00;1.00;;;;;24.48;44.09;101098.63;5020129;28;45527;-57
2023/09/19 06:47:16;;;;;;;;;4.75;3.00;;;;;24.58;43.93;101102.19;5020022;28;46129;-57
2023/09/19 06:49:43;;;;;;;;;1.50;1.25;;;;;24.32;43.98;101103.91;5019392;28;45328;-58
2023/09/19 06:52:09;;;;;;;;;3.25;1.75;;;;;24.25;44.16;101097.28;5020048;28;45492;-58
2023/09/19 06:54:35;;;;;;;;;2.00;2.00;;;;;24.41;44.35;101098.34;5019901;28;45252;-57
2023/09/19 06:57:01;;;;;;;;;4.00;2.00;;;;;24.14;44.31;101103.78;5017715;28;46193;-55
2023/09/19 06:59:26;;;;;;;;;1.75;1.75;;;;;24.34;44.02;101110.94;5012659;28;45452;-58
2023/09/19 07:01:52;;;;;;;;;0.50;0.50;;;;;24.28;44.26;101102.47;5018577;28;52675;-57
2023/09/19 07:04:19;;;;;;;;;1.00;1.00;;;;;24.60;43.59;101094.66;5019431;28;45476;-57
2023/09/19 07:06:49;;;;;;;;;3.00;1.75;;;;;24.89;42.96;101103.59;5017610;28;47261;-57
2023/09/19 07:09:15;;;;;;;;;2.75;2.00;;;;;24.80;43.06;101115.50;5016088;28;45310;-57
2023/09/19 07:11:40;;;;;;;;;3.00;1.00;;;;;24.83;42.85;101111.59;5019370;28;45536;-58
2023/09/19 07:14:05;;;;;;;;;1.00;0.50;;;;;24.80;42.91;101114.63;5019535;28;45421;-58
2023/09/19 07:16:31;;;;;;;;;2.50;1.75;;;;;24.66;42.87;101117.88;5019023;28;46258;-58
2023/09/19 07:18:57;;;;;;;;;4.50;1.50;;;;;24.68;43.18;101107.59;5019460;28;45247;-57
2023/09/19 07:21:23;;;;;;;;;4.50;2.00;;;;;24.77;42.80;101104.81;5019609;28;45499;-58
2023/09/19 07:23:49;;;;;;;;;1.75;1.75;;;;;24.99;42.48;101094.47;5018226;28;45515;-58
2023/09/19 07:26:15;;;;;;;;;4.75;3.25;;;;;25.17;42.68;101089.88;5018670;28;45429;-57
2023/09/19 07:28:40;;;;;;;;;0.25;0.25;;;;;25.27;41.39;101094.25;5001282;28;45412;-57
2023/09/19 07:31:07;;;;;;;;;3.00;1.50;;;;;25.40;41.54;101107.59;5017747;28;51549;-57
2023/09/19 07:33:32;;;;;;;;;6.00;1.75;;;;;25.06;41.49;101099.19;5019207;28;45435;-57
2023/09/19 07:35:57;;;;;;;;;4.50;1.00;;;;;25.31;41.34;101096.69;5019154;28;45263;-58
2023/09/19 07:38:22;;;;;;;;;1.25;1.25;;;;;25.45;41.19;101107.97;5019130;28;45373;-58
2023/09/19 07:40:48;;;;;;;;;5.00;2.00;;;;;25.42;41.29;101099.22;5018403;28;48357;-57
2023/09/19 07:43:13;;;;;;;;;3.50;2.25;;;;;25.57;40.98;101103.09;5018797;28;54895;-58
2023/09/19 07:45:39;;;;;;;;;3.00;1.00;;;;;25.42;41.15;101090.97;5018833;28;45318;-57
2023/09/19 07:48:06;;;;;;;;;2.25;2.00;;;;;25.41;41.24;101098.34;5019089;28;45148;-57
2023/09/19 07:50:36;;;;;;;;;2.75;2.25;;;;;25.52;41.34;101086.25;5019306;28;45538;-57
2023/09/19 07:53:04;;;;;;;;;1.00;1.00;;;;;25.12;41.23;101092.19;5019000;28;45279;-58
2023/09/19 07:55:30;;;;;;;;;2.50;1.00;;;;;25.17;41.88;101085.25;5018811;28;46363;-59
2023/09/19 07:57:55;;;;;;;;;1.00;1.00;;;;;25.20;41.50;101092.28;5018854;28;45418;-58
2023/09/19 08:00:20;;;;;;;;;0.75;0.75;;;;;25.21;41.54;101097.63;5019398;28;45289;-59
2023/09/19 08:02:48;;;;;;;;;1.00;1.00;;;;;25.43;41.31;101101.78;5000833;28;46031;-58
2023/09/19 08:05:15;;;;;;;;;5.00;1.75;;;;;25.64;41.50;101109.72;5018596;28;46116;-58
2023/09/19 08:07:43;;;;;;;;;0.50;0.50;;;;;25.62;40.77;101092.53;5018275;28;45313;-57
2023/09/19 08:10:13;;;;;;;;;2.00;2.00;;;;;25.73;40.85;101103.28;5018458;28;45425;-58
2023/09/19 08:12:46;;;;;;;;;4.25;1.00;;;;;25.79;40.12;101116.34;5018612;28;45467;-58
2023/09/19 08:15:13;;;;;;;;;3.00;1.25;;;;;25.58;40.68;101113.06;5018723;28;45258;-57
2023/09/19 08:17:39;;;;;;;;;3.50;2.00;;;;;25.54;41.18;101096.03;5005636;28;45397;-57
2023/09/19 08:20:05;;;;;;;;;0.25;0.25;;;;;25.47;41.04;101096.84;5018867;28;45387;-58
2023/09/19 08:22:31;;;;;;;;;4.00;1.50;;;;;25.68;41.25;101104.78;5018171;28;45445;-57
2023/09/19 08:24:58;;;;;;;;;2.00;2.00;;;;;25.60;41.22;101108.31;5018794;28;45428;-58
2023/09/19 08:27:26;;;;;;;;;1.00;1.00;;;;;25.65;41.18;101113.31;5018583;28;45266;-58
2023/09/19 08:29:52;;;;;;;;;3.00;1.25;;;;;25.84;40.81;101107.66;5018543;28;45396;-58
2023/09/19 08:32:19;;;;;;;;;0.50;0.25;;;;;25.91;41.05;101108.72;5010408;28;45423;-57
2023/09/19 08:34:45;;;;;;;;;2.00;2.00;;;;;25.98;40.82;101113.41;5018186;28;46193;-57
2023/09/19 08:37:10;;;;;;;;;2.75;1.75;;;;;25.52;41.39;101114.53;5018097;28;45365;-58
2023/09/19 08:39:36;;;;;;;;;2.00;2.00;;;;;25.82;41.27;101115.19;5016088;28;45430;-57
2023/09/19 08:42:02;;;;;;;;;2.00;2.00;;;;;25.55;41.85;101110.63;5018321;28;45474;-57
2023/09/19 08:44:31;;;;;;;;;2.00;2.00;;;;;25.87;41.47;101108.19;5018344;28;45932;-56
2023/09/19 08:47:22;;;;;;;;;1.25;1.25;;;;;25.66;41.64;101102.19;5018307;28;45335;-57
2023/09/19 08:50:02;;;;;;;;;3.00;3.00;;;;;25.71;41.78;101119.03;5016534;28;45556;-57
2023/09/19 08:52:35;;;;;;;;;2.00;2.00;;;;;25.85;41.51;101120.38;5017204;28;45394;-57
2023/09/19 08:55:04;;;;;;;;;2.25;2.00;;;;;26.07;40.96;101114.34;5018592;28;45287;-58
2023/09/19 08:57:34;;;;;;;;;1.75;1.25;;;;;26.07;41.15;101118.97;5018086;28;45496;-58
2023/09/19 09:00:01;;;;;;;;;1.75;1.75;;;;;26.07;41.12;101117.09;5022002;28;45333;-59
2023/09/19 09:02:27;;;;;;;;;1.50;1.50;;;;;26.01;40.99;101117.75;5020371;28;45531;-58
2023/09/19 09:04:54;;;;;;;;;1.00;0.25;;;;;26.16;40.69;101109.75;5021499;28;47071;-58
2023/09/19 09:07:21;;;;;;;;;1.50;1.50;;;;;26.19;41.06;101099.31;5021321;28;45424;-57
2023/09/19 09:09:47;;;;;;;;;3.00;2.00;;;;;25.95;41.49;101113.72;5019083;28;45337;-58
2023/09/19 09:12:15;;;;;;;;;1.00;1.00;;;;;25.90;41.52;101112.50;5019639;28;46086;-58
2023/09/19 09:14:44;;;;;;;;;3.25;1.00;;;;;26.11;41.37;101131.38;5021394;28;46990;-57
2023/09/19 09:17:11;;;;;;;;;1.00;1.00;;;;;25.95;41.32;101121.97;5021439;28;45401;-58
2023/09/19 09:19:37;;;;;;;;;2.00;1.00;;;;;25.97;41.08;101114.44;5021521;28;45321;-58
2023/09/19 09:22:10;;;;;;;;;2.50;1.75;;;;;26.20;40.86;101119.41;5021009;28;45357;-58
2023/09/19 09:24:38;;;;;;;;;0.00;0.00;;;;;26.30;40.51;101115.53;5021469;28;46171;-58
2023/09/19 09:27:05;;;;;;;;;1.50;1.50;;;;;26.46;39.88;101106.50;5020149;28;45272;-58
2023/09/19 09:29:51;;;;;;;;;1.00;1.00;;;;;26.33;40.06;101095.13;5020559;28;45337;-58
2023/09/19 09:32:18;;;;;;;;;1.00;1.00;;;;;26.33;40.34;101100.63;5020014;28;45452;-58
2023/09/19 09:34:44;;;;;;;;;3.75;2.00;;;;;25.91;40.40;101103.25;5003109;28;45412;-58
2023/09/19 09:37:15;;;;;;;;;1.25;1.25;;;;;26.60;39.19;101105.91;5020783;28;45401;-58
2023/09/19 09:39:40;;;;;;;;;1.00;1.00;;;;;26.62;38.77;101092.88;5020636;28;45227;-58
2023/09/19 09:42:06;;;;;;;;;2.00;2.00;;;;;26.26;39.44;101099.56;5021279;28;45327;-58
2023/09/19 09:44:32;;;;;;;;;0.25;0.25;;;;;26.47;38.89;101118.38;5020504;28;46170;-58
2023/09/19 09:47:27;;;;;;;;;1.50;1.00;;;;;26.33;39.64;101108.88;5020758;28;45503;-57
2023/09/19 09:49:54;;;;;;;;;2.25;1.50;;;;;26.72;38.57;101099.06;5015427;28;45484;-58
2023/09/19 09:52:24;;;;;;;;;0.75;0.75;;;;;26.61;37.98;101099.38;5020267;28;45492;-58
2023/09/19 09:55:07;;;;;;;;;0.75;0.75;;;;;26.70;37.53;101097.53;5020426;28;46353;-60
2023/09/19 09:57:33;;;;;;;;;1.00;0.50;;;;;26.74;37.74;101105.28;5014886;28;45397;-58
2023/09/19 10:00:16;;;;;;;;;0.50;0.50;;;;;26.84;37.07;101087.78;5021150;28;45339;-58
2023/09/19 10:02:42;;;;;;;;;0.50;0.25;;;;;26.63;37.90;101088.19;5020521;28;45424;-58
2023/09/19 10:05:21;;;;;;;;;4.00;0.75;;;;;27.17;36.95;101088.72;5017178;28;45375;-58
2023/09/19 10:07:53;;;;;;;;;1.00;1.00;;;;;27.27;36.15;101089.44;5019561;28;45532;-58
2023/09/19 10:13:12;;;;;;;;;3.75;2.50;;;;;27.55;35.97;101087.28;5017487;28;45426;-57
2023/09/19 10:15:42;;;;;;;;;1.00;1.00;;;;;27.66;36.13;101081.41;5018985;28;45393;-57
2023/09/19 10:18:10;;;;;;;;;3.00;0.75;;;;;27.68;35.44;101071.06;5020244;28;45533;-57
2023/09/19 10:20:38;;;;;;;;;6.25;4.75;;;;;27.93;35.06;101066.38;5019750;28;45358;-59
2023/09/19 10:23:10;;;;;;;;;0.00;0.00;;;;;27.97;35.19;101063.13;5019365;28;45463;-57
2023/09/19 10:25:38;;;;;;;;;1.25;1.00;;;;;27.81;35.23;101066.78;5019098;28;46666;-57
2023/09/19 10:28:10;;;;;;;;;0.75;0.75;;;;;27.93;35.54;101061.75;5010538;28;46039;-56
2023/09/19 10:30:39;;;;;;;;;1.00;1.00;;;;;27.95;35.20;101059.66;5017473;28;45309;-58
2023/09/19 10:33:05;;;;;;;;;2.00;0.50;;;;;28.36;34.85;101052.16;5019489;28;45433;-58
2023/09/19 10:35:32;;;;;;;;;1.50;1.00;;;;;28.35;34.11;101064.22;5019720;28;45320;-59
2023/09/19 10:38:01;;;;;;;;;0.00;0.00;;;;;28.23;34.26;101072.06;5020272;28;45706;-57
2023/09/19 10:40:32;;;;;;;;;0.00;0.00;;;;;28.10;34.12;101082.72;5020302;28;45345;-57
2023/09/19 10:43:05;;;;;;;;;0.25;0.25;;;;;28.15;34.13;101062.91;5019504;28;45234;-58
2023/09/19 10:45:31;;;;;;;;;1.00;1.00;;;;;27.66;34.06;101067.63;5018634;28;46088;-58
2023/09/19 10:47:57;;;;;;;;;1.00;1.00;;;;;27.82;34.33;101056.56;5008548;28;45488;-56
2023/09/19 10:50:23;;;;;;;;;1.25;1.25;;;;;28.00;34.08;101053.63;5019245;28;45478;-58
2023/09/19 10:52:57;;;;;;;;;2.00;1.00;;;;;28.27;34.01;101052.38;5015315;28;45502;-57
2023/09/19 10:55:25;;;;;;;;;0.50;0.50;;;;;28.44;33.55;101049.38;5019706;28;46321;-57
2023/09/19 10:57:51;;;;;;;;;3.75;0.50;;;;;28.29;34.12;101053.06;5019942;28;45518;-57
2023/09/19 11:00:23;;;;;;;;;5.50;0.00;;;;;28.64;33.59;101046.19;5020111;28;45385;-58
2023/09/19 11:03:11;;;;;;;;;1.00;1.00;;;;;28.82;32.99;101049.59;5018318;28;45356;-57
2023/09/19 11:05:40;;;;;;;;;0.50;0.50;;;;;28.94;33.45;101050.88;5018604;28;45772;-57
2023/09/19 11:08:07;;;;;;;;;1.50;1.00;;;;;29.05;33.03;101060.63;5019423;28;45381;-58
2023/09/19 11:10:59;;;;;;;;;1.75;1.75;;;;;28.24;33.58;101075.66;5015280;28;45286;-58
2023/09/19 11:13:34;;;;;;;;;2.75;0.75;;;;;28.62;33.46;101076.72;5006190;28;45780;-57
2023/09/19 11:16:03;;;;;;;;;0.75;0.75;;;;;28.51;34.06;101063.31;5019115;28;46092;-58
2023/09/19 11:18:40;;;;;;;;;1.00;1.00;;;;;29.05;33.53;101061.50;5019337;28;45686;-58
2023/09/19 11:21:33;;;;;;;;;2.75;1.00;;;;;29.29;32.63;101049.41;5018843;28;45482;-58
2023/09/19 11:24:22;;;;;;;;;1.75;0.25;;;;;29.57;32.84;101044.22;5019378;28;45494;-58
2023/09/19 11:26:48;;;;;;;;;0.50;0.50;;;;;29.79;32.31;101046.06;5014288;28;45486;-56
2023/09/19 11:29:31;;;;;;;;;1.00;0.75;;;;;29.63;32.08;101043.47;5020544;28;45336;-58
2023/09/19 11:31:59;;;;;;;;;1.75;0.25;;;;;29.85;32.00;101038.94;5002748;28;45472;-59
2023/09/19 11:34:37;;;;;;;;;2.50;0.50;;;;;29.86;31.69;101043.44;5002145;28;45928;-58
2023/09/19 11:37:23;;;;;;;;;0.25;0.00;;;;;29.72;32.36;101042.34;5019523;28;45603;-58
2023/09/19 11:40:13;;;;;;;;;0.25;0.25;;;;;29.72;32.34;101034.03;4994435;28;46355;-58
2023/09/19 11:42:49;;;;;;;;;1.50;0.00;;;;;29.49;32.63;101036.00;5019869;28;45334;-60
2023/09/19 11:45:40;;;;;;;;;2.25;0.50;;;;;29.99;32.46;101046.41;5012477;28;45558;-58
2023/09/19 11:48:07;;;;;;;;;2.50;1.75;;;;;29.18;32.86;101044.31;5016824;28;45588;-58
2023/09/19 11:50:36;;;;;;;;;2.50;0.75;;;;;30.05;32.08;101045.66;5019735;28;45444;-58
2023/09/19 11:53:02;;;;;;;;;0.00;0.00;;;;;29.83;32.67;101044.66;5019704;28;45401;-59
2023/09/19 11:55:32;;;;;;;;;1.75;1.75;;;;;29.90;32.63;101042.00;5019553;28;45454;-57
2023/09/19 11:57:59;;;;;;;;;2.00;2.00;;;;;29.40;33.50;101048.16;5019656;28;46913;-59
2023/09/19 12:00:25;;;;;;;;;1.75;1.75;;;;;29.71;33.41;101041.47;4994404;28;45865;-58
2023/09/19 12:02:57;;;;;;;;;2.00;2.00;;;;;29.82;33.48;101045.69;5019038;28;45326;-58
2023/09/19 12:05:33;;;;;;;;;2.00;1.00;;;;;29.97;32.98;101045.75;5019750;28;45325;-58
2023/09/19 12:07:58;;;;;;;;;1.00;1.00;;;;;29.83;33.66;101044.66;5006842;28;45698;-59
2023/09/19 12:10:24;;;;;;;;;2.00;1.50;;;;;29.78;33.27;101033.28;5002138;28;45304;-59
2023/09/19 12:12:50;;;;;;;;;0.50;0.50;;;;;29.76;34.57;101045.59;5020160;28;45300;-58
2023/09/19 12:15:24;;;;;;;;;2.25;2.00;;;;;30.16;33.46;101031.38;5019236;28;45147;-57
2023/09/19 12:17:50;;;;;;;;;1.50;1.50;;;;;29.97;34.19;101040.22;5017702;28;47408;-59
2023/09/19 12:20:16;;;;;;;;;1.50;1.50;;;;;30.34;33.67;101029.06;5010572;28;45524;-58
2023/09/19 12:22:44;;;;;;;;;2.25;1.75;;;;;30.55;33.45;101049.56;5018206;28;45479;-58
2023/09/19 12:25:11;;;;;;;;;2.50;0.75;;;;;29.65;33.75;101041.38;5017906;28;46119;-60
2023/09/19 12:27:47;;;;;;;;;1.00;1.00;;;;;29.83;33.74;101036.38;5017280;28;45433;-59
2023/09/19 12:30:14;;;;;;;;;3.00;1.00;;;;;29.99;34.16;101041.75;5017012;28;45472;-60
2023/09/19 12:32:40;;;;;;;;;1.75;1.75;;;;;29.99;34.03;101044.50;5021095;28;45373;-58
2023/09/19 12:35:10;;;;;;;;;1.75;1.25;;;;;30.22;33.69;101038.88;5021745;28;45477;-58
2023/09/19 12:37:37;;;;;;;;;0.75;0.75;;;;;30.13;33.42;101017.91;5021026;28;45385;-57
2023/09/19 12:40:22;;;;;;;;;1.25;1.25;;;;;30.39;32.83;101029.34;5021992;28;45407;-58
2023/09/19 12:42:49;;;;;;;;;0.00;0.00;;;;;29.54;34.30;101020.56;5021434;28;45356;-57
2023/09/19 12:45:17;;;;;;;;;1.00;1.00;;;;;30.07;33.93;101015.91;5021945;28;45425;-57
2023/09/19 12:48:29;;;;;;;;;0.75;0.75;;;;;30.73;32.63;101006.59;5021877;28;46318;-58
2023/09/19 12:51:13;;;;;;;;;1.00;0.50;;;;;31.66;31.08;101002.88;5021683;28;45363;-57
2023/09/19 12:53:42;;;;;;;;;1.00;1.00;;;;;31.39;31.19;101004.53;5021054;28;45330;-58
2023/09/19 12:56:09;;;;;;;;;4.75;2.00;;;;;31.53;31.31;101002.75;5021687;28;45453;-57
2023/09/19 12:58:48;;;;;;;;;0.25;0.25;;;;;31.54;31.33;100990.59;5020858;28;45413;-57
2023/09/19 13:01:15;;;;;;;;;1.50;1.00;;;;;31.69;31.04;100999.69;5021745;28;45333;-58
2023/09/19 13:03:42;;;;;;;;;0.75;0.75;;;;;31.75;31.04;101001.66;5020872;28;45398;-57
2023/09/19 13:06:09;;;;;;;;;1.75;1.75;;;;;30.78;31.57;100998.56;5021340;28;45380;-57
2023/09/19 13:08:41;;;;;;;;;0.00;0.00;;;;;31.10;31.38;100997.25;5020725;28;46944;-59
2023/09/19 13:11:07;;;;;;;;;0.75;0.75;;;;;31.56;31.44;100988.47;5020969;28;45413;-59
2023/09/19 13:13:37;;;;;;;;;5.75;2.75;;;;;31.92;31.14;101007.75;5021681;28;45282;-58
2023/09/19 13:16:04;;;;;;;;;0.75;0.75;;;;;31.41;30.80;100991.34;5008553;28;45357;-59
2023/09/19 13:18:29;;;;;;;;;1.00;1.00;;;;;31.55;30.50;100993.19;5020564;28;46385;-59
2023/09/19 13:21:23;;;;;;;;;1.75;1.75;;;;;31.69;30.82;100988.63;5021406;28;45264;-58
2023/09/19 13:23:50;;;;;;;;;1.50;1.50;;;;;31.56;31.27;100980.16;5018505;28;45384;-58
2023/09/19 13:26:15;;;;;;;;;2.75;1.50;;;;;32.13;31.08;100985.50;5021515;28;45549;-57
2023/09/19 13:28:41;;;;;;;;;3.50;1.75;;;;;31.77;30.69;100982.91;5020569;28;63557;-57
2023/09/19 13:31:06;;;;;;;;;2.75;1.25;;;;;32.24;30.58;100984.91;5020029;28;45397;-58
2023/09/19 13:33:33;;;;;;;;;1.00;1.00;;;;;32.44;29.98;100978.59;5003480;28;45377;-59
2023/09/19 13:35:58;;;;;;;;;3.25;2.00;;;;;32.95;29.56;100960.41;5020913;28;45307;-57
2023/09/19 13:38:24;;;;;;;;;2.00;2.00;;;;;33.41;29.09;100968.84;5020400;28;62166;-59
2023/09/19 13:40:52;;;;;;;;;2.00;2.00;;;;;33.42;28.68;100967.78;5020717;28;45451;-59
2023/09/19 13:43:18;;;;;;;;;2.00;2.00;;;;;33.27;28.82;100969.03;5019870;28;45436;-59
2023/09/19 13:45:43;;;;;;;;;2.25;1.50;;;;;33.75;28.51;100967.75;5021141;28;45342;-59
2023/09/19 13:48:08;;;;;;;;;1.00;1.00;;;;;34.35;26.80;100945.34;5021101;28;45463;-59
2023/09/19 13:50:43;;;;;;;;;0.75;0.75;;;;;34.78;26.15;100956.72;5020407;28;63296;-59
2023/09/19 13:53:09;;;;;;;;;1.25;1.25;;;;;35.98;25.36;100949.94;5020644;28;45432;-58
2023/09/19 13:55:34;;;;;;;;;1.00;1.00;;;;;36.50;24.51;100953.16;5020312;28;45562;-58
2023/09/19 13:58:00;;;;;;;;;2.00;2.00;;;;;36.16;24.62;100946.25;5020778;28;46038;-58
2023/09/19 14:00:25;;;;;;;;;3.25;1.75;;;;;36.61;24.85;100938.41;5020846;28;45294;-59
2023/09/19 14:02:52;;;;;;;;;1.00;1.00;;;;;36.41;24.19;100944.25;5021057;28;45210;-58
2023/09/19 14:05:17;;;;;;;;;2.50;1.25;;;;;36.47;24.86;100946.13;5019912;28;45553;-57
2023/09/19 14:07:43;;;;;;;;;2.25;2.00;;;;;35.94;24.93;100938.38;5020174;28;51014;-57
2023/09/19 14:10:10;;;;;;;;;0.25;0.25;;;;;35.07;25.39;100950.50;5020118;28;45729;-58
2023/09/19 14:12:36;;;;;;;;;5.50;1.00;;;;;34.00;26.75;100959.56;5020734;28;45397;-58
2023/09/19 14:15:02;;;;;;;;;2.00;2.00;;;;;33.28;27.75;100952.13;5020463;28;45420;-58
2023/09/19 14:17:28;;;;;;;;;0.00;0.00;;;;;32.90;28.65;100953.81;5020329;28;45312;-57
2023/09/19 14:19:53;;;;;;;;;1.50;1.50;;;;;32.60;29.23;100948.56;5020557;28;45299;-59
2023/09/19 14:22:18;;;;;;;;;0.75;0.75;;;;;32.95;29.05;100956.78;5019689;28;48742;-59
2023/09/19 14:24:44;;;;;;;;;2.25;1.75;;;;;32.64;29.27;100949.00;5020045;28;56544;-58
2023/09/19 14:27:09;;;;;;;;;1.25;1.25;;;;;32.56;29.35;100941.72;5020201;28;45290;-57
2023/09/19 14:29:34;;;;;;;;;2.25;1.00;;;;;32.75;28.95;100940.06;5020268;28;45321;-59
2023/09/19 14:32:00;;;;;;;;;3.50;1.00;;;;;31.91;29.98;100926.47;5019162;28;45258;-58
2023/09/19 14:34:25;;;;;;;;;0.00;0.00;;;;;32.25;29.82;100927.50;5020423;28;45428;-57
2023/09/19 14:36:50;;;;;;;;;1.75;1.75;;;;;31.91;30.07;100929.25;5019575;28;47734;-57
2023/09/19 14:39:16;;;;;;;;;6.75;1.25;;;;;31.85;30.36;100926.44;5001880;28;53059;-58
2023/09/19 14:41:41;;;;;;;;;0.00;0.00;;;;;31.52;30.82;100923.41;5019770;28;45410;-58
2023/09/19 14:44:07;;;;;;;;;0.75;0.75;;;;;31.27;31.09;100924.94;5020289;28;45440;-58
2023/09/19 14:46:32;;;;;;;;;1.75;1.50;;;;;31.65;30.71;100917.13;5019864;28;47059;-58
2023/09/19 14:48:59;;;;;;;;;2.75;1.00;;;;;31.61;31.10;100907.50;5020097;28;45163;-58
2023/09/19 14:51:25;;;;;;;;;1.75;1.75;;;;;31.73;31.05;100906.72;5019342;28;45389;-58
2023/09/19 14:53:50;;;;;;;;;1.50;1.50;;;;;32.10;30.65;100905.44;5019889;28;45414;-58
2023/09/19 14:56:18;;;;;;;;;1.00;1.00;;;;;32.44;29.98;100910.06;5018167;28;61815;-59
2023/09/19 14:58:43;;;;;;;;;1.00;1.00;;;;;32.69;30.22;100899.28;5019927;28;45748;-58
2023/09/19 15:01:10;;;;;;;;;2.00;0.75;;;;;32.65;29.94;100907.16;5019989;28;45444;-58
2023/09/19 15:03:37;;;;;;;;;1.75;1.75;;;;;32.55;30.01;100912.25;5019991;28;45426;-58
2023/09/19 15:06:08;;;;;;;;;1.00;1.00;;;;;32.34;30.06;100901.28;5019339;28;45273;-58
2023/09/19 15:08:34;;;;;;;;;3.75;1.25;;;;;31.54;31.71;100905.53;5019511;28;45342;-58
2023/09/19 15:11:03;;;;;;;;;1.00;1.00;;;;;31.31;31.40;100893.84;5019114;28;45660;-58
2023/09/19 15:13:30;;;;;;;;;2.00;2.00;;;;;31.30;31.38;100897.69;5018995;28;45420;-58
2023/09/19 15:16:00;;;;;;;;;1.50;1.50;;;;;31.46;31.50;100896.53;5019378;28;45345;-58
2023/09/19 15:18:25;;;;;;;;;1.25;1.25;;;;;31.50;31.51;100889.50;5018809;28;45250;-59
2023/09/19 15:20:51;;;;;;;;;1.25;1.25;;;;;31.43;31.70;100889.47;5006296;28;45288;-59
2023/09/19 15:23:18;;;;;;;;;0.75;0.75;;;;;31.63;31.63;100891.56;5018918;28;49668;-58
2023/09/19 15:25:49;;;;;;;;;2.75;1.50;;;;;31.72;31.20;100887.56;5019662;28;47269;-58
2023/09/19 15:28:14;;;;;;;;;1.50;1.50;;;;;31.82;31.45;100886.09;5019355;28;45381;-58
2023/09/19 15:30:39;;;;;;;;;1.25;1.25;;;;;31.79;31.41;100892.06;5018304;28;45284;-58
2023/09/19 15:33:05;;;;;;;;;0.75;0.75;;;;;31.63;31.82;100884.09;5018854;28;58571;-59
2023/09/19 15:35:30;;;;;;;;;2.75;1.50;;;;;31.61;31.68;100886.19;5018040;28;46014;-58
2023/09/19 15:37:56;;;;;;;;;2.00;2.00;;;;;31.45;31.23;100884.59;5018746;28;45262;-58
2023/09/19 15:40:23;;;;;;;;;2.50;2.50;;;;;31.59;31.33;100871.66;5019427;28;45328;-59
2023/09/19 15:42:49;;;;;;;;;1.75;1.75;;;;;31.59;31.45;100875.28;5018609;28;45694;-58
2023/09/19 15:45:16;;;;;;;;;1.50;1.50;;;;;32.20;30.76;100866.25;5019181;28;45391;-57
2023/09/19 15:47:42;;;;;;;;;1.75;1.75;;;;;32.75;30.24;100878.16;5017884;28;45503;-58
2023/09/19 15:50:10;;;;;;;;;2.75;2.75;;;;;33.05;29.61;100879.44;5018522;28;45376;-57
2023/09/19 15:52:35;;;;;;;;;1.00;1.00;;;;;33.55;29.24;100864.03;5018646;28;45859;-57
2023/09/19 15:55:03;;;;;;;;;1.00;1.00;;;;;34.34;28.43;100865.69;5018844;28;45341;-58
2023/09/19 15:57:30;;;;;;;;;4.50;1.50;;;;;33.97;28.30;100868.19;5018767;28;45323;-59
2023/09/19 15:59:55;;;;;;;;;0.75;0.75;;;;;33.62;28.96;100869.56;5019090;28;45293;-58
2023/09/19 16:02:20;;;;;;;;;1.00;1.00;;;;;33.48;29.30;100865.97;5018924;28;45421;-59
2023/09/19 16:04:45;;;;;;;;;1.00;1.00;;;;;33.80;28.61;100864.19;5018691;28;61162;-58